Metar Cercanos

 

LEPA - Palma De Mallorc, Spain
Distance from station: ONO 38km
Actualización: 18/11/2018 11:30
Few Clouds
Few Clouds
 Viento del ENE
Viento: ENE 9 km/h
Temperatura: 16°C
Rocío: 12°C
Humedad: 77%
Barómetro: 1010 hPa
Clouds: Few Clouds
Visibility: 10 km
Cloud details: Few Clouds 762 m
2018/11/18 10:30 LEPA 181030Z 07005KT 050V110 9999 FEW025 16/12 Q1010 NOSIG
LEMH - Mahon/Menorca Is, Spain
Distance from station: ENE 105km
Actualización: 18/11/2018 11:30
Parcialmente nuboso
Parcialmente nuboso
 Viento del ESE
Viento: ESE 20 km/h
Temperatura: 16°C
Rocío: 10°C
Humedad: 68%
Barómetro: 1011 hPa
Clouds: Parcialmente nuboso
Visibility: 10 km
Cloud details: Few Clouds 762 m
Parcialmente nuboso 1219 m
2018/11/18 10:30 LEMH 181030Z 11011KT 070V130 9999 FEW025 SCT040 16/10 Q1011
 
LEIB - Ibiza/Es Codola, Spain
Distance from station: OSO 165km
Actualización: 18/11/2018 11:30
Parcialmente nuboso
Parcialmente nuboso
 Viento del E
Viento: E 19 km/h
Temperatura: 17°C
Rocío: 12°C
Humedad: 73%
Barómetro: 1009 hPa
Clouds: Parcialmente nuboso
Visibility: 10 km
Cloud details: Few Clouds 732 m
Parcialmente nuboso 853 m
2018/11/18 10:30 LEIB 181030Z 09010KT 050V120 9999 FEW024 SCT028 17/12 Q1009 NOSIG
LEBL - Barcelona Airpor, Spain
Distance from station: NNO 225km
Actualización: 18/11/2018 11:30
Lluvia débil, Muy nuboso
Lluvia débil, Muy nuboso
 Viento del ENE
Viento: ENE 33 km/h
Temperatura: 13°C
Rocío: 10°C
Humedad: 82%
Barómetro: 1013 hPa
Resumen: Lluvia débil
Clouds: Muy nuboso
Visibility: 10 km
Cloud details: Few Clouds 549 m
Muy nuboso 1494 m
2018/11/18 10:30 LEBL 181030Z 06018KT 9999 -RA FEW018 BKN049 13/10 Q1013 TEMPO 4000 SHRA FEW018TCU
 
LEVC - Valencia (civ/Mi, Spain
Distance from station: NO 188km
Actualización: 18/11/2018 11:30
Muy nuboso
Muy nuboso
 Viento del ENE
Viento: ENE 11 km/h
Temperatura: 14°C
Rocío: 13°C
Humedad: 94%
Barómetro: 1009 hPa
Clouds: Muy nuboso
Visibility: 10 km
Cloud details: Few Clouds 396 m
Muy nuboso 1067 m
2018/11/18 10:30 LEVC 181030Z 07006KT 030V100 9999 FEW013 BKN035 14/13 Q1009 NOSIG
LEGE - Gerona/Costa Bra, Spain
Distance from station: N 276km
Actualización: 18/11/2018 11:30
Lluvia débil, Muy nuboso
Lluvia débil, Muy nuboso
 Viento del N
Viento: N 7 km/h
Temperatura: 10°C
Sensación frio: 9°C
Rocío: 10°C
Humedad: 100%
Barómetro: 1014 hPa
Resumen: Lluvia débil
Clouds: Muy nuboso
Visibility: 10 km
Cloud details: Parcialmente nuboso 488 m
Few Clouds 610 m
Muy nuboso 1402 m
2018/11/18 10:30 LEGE 181030Z 36004KT 300V060 9999 -RA SCT016 FEW020CB BKN046 10/10 Q1014
 
LEAL - Alicante/El Alte, Spain
Distance from station: OSO 344km
Actualización: 18/11/2018 11:30
Muy nuboso
Muy nuboso
 Viento del E
Viento: E 26 km/h
Temperatura: 18°C
Rocío: 13°C
Humedad: 73%
Barómetro: 1008 hPa
Clouds: Muy nuboso
Visibility: 10 km
Cloud details: Parcialmente nuboso 610 m
Muy nuboso 914 m
2018/11/18 10:30 LEAL 181030Z 08014KT 9999 SCT020 BKN030 18/13 Q1008 NOSIG
LEAM - Almeria Airport, Spain
Distance from station: SSO 56km
Actualización: 18/11/2018 11:30
Few Clouds
Few Clouds
 Viento del NE
Viento: NE 30 km/h
Temperatura: 19°C
Rocío: 10°C
Humedad: 56%
Barómetro: 1005 hPa
Clouds: Few Clouds
Visibility: 10 km
Cloud details: Few Clouds 1067 m
2018/11/18 10:30 LEAM 181030Z 04016KT 9999 FEW035 19/10 Q1005
 
LEZG - Zaragoza (mil/Ci, Spain
Distance from station: NO 431km
Actualización: 18/11/2018 11:30
Light drizzle, Cubierto
Light drizzle, Cubierto
 Viento del ESE
Viento: ESE 20 km/h
Temperatura: 10°C
Sensación frio: 7°C
Rocío: 9°C
Humedad: 94%
Barómetro: 1010 hPa
Resumen: Light Drizzle
Clouds: Cubierto
Visibility: 10 km
Cloud details: Cubierto 366 m
2018/11/18 10:30 LEZG 181030Z 11011KT 080V150 9999 -DZ OVC012 10/09 Q1010
LEMD - Madrid/Barajas, Spain
Distance from station: ONO 234km
Actualización: 18/11/2018 11:30
Muy nuboso
Muy nuboso
 Viento del varies
Viento: varies 4 km/h
Temperatura: 12°C
Rocío: 9°C
Humedad: 82%
Barómetro: 1007 hPa
Clouds: Muy nuboso
Visibility: 10 km
Cloud details: Muy nuboso 762 m
Muy nuboso 1219 m
2018/11/18 10:30 LEMD 181030Z VRB02KT 9999 BKN025 BKN040 12/09 Q1007 BECMG 14010KT
 
LEGR - Granada Airport, Spain
Distance from station: OSO 62km
Actualización: 18/11/2018 11:30
Few Clouds
Few Clouds
 Viento del E
Viento: E 13 km/h
Temperatura: 16°C
Rocío: 9°C
Humedad: 63%
Barómetro: 1003 hPa
Clouds: Few Clouds
Visibility: 10 km
Cloud details: Few Clouds 2438 m
2018/11/18 10:30 LEGR 181030Z 09007KT 050V120 9999 FEW080 16/09 Q1003
LEMG - Malaga (civ/Mil), Spain
Distance from station: OSO 227km
Actualización: 18/11/2018 11:31
Lluvia, Muy nuboso
Lluvia, Muy nuboso
 Viento del ESE
Viento: ESE 37 km/h
Temperatura: 16°C
Rocío: 13°C
Humedad: 83%
Barómetro: 1004 hPa
Resumen: Lluvia
Clouds: Muy nuboso
Visibility: 3 km
Cloud details: Parcialmente nuboso 305 m
Muy nuboso 1067 m
2018/11/18 10:31 LEMG 181031Z 12020KT 3000 RA SCT010CB BKN035 16/13 Q1004 BECMG 2000 TSRA
 
LEZL - Sevilla (civ/Mil, Spain
Distance from station: S 318km
Actualización: 18/11/2018 11:30
Cubierto
Cubierto
 Viento del NO
Viento: NO 11 km/h
Temperatura: 15°C
Rocío: 14°C
Humedad: 94%
Barómetro: 1002 hPa
Clouds: Cubierto
Visibility: 10 km
Cloud details: Muy nuboso 274 m
Cubierto 427 m
2018/11/18 10:30 LEZL 181030Z 32006KT 9999 BKN009 OVC014 15/14 Q1002 NOSIG
LEVT - Vitoria, Spain
Distance from station: NO 226km
Actualización: 18/11/2018 11:30
Muy nuboso
Muy nuboso
 Viento del E
Viento: E 13 km/h
Temperatura: 11°C
Rocío: 8°C
Humedad: 82%
Barómetro: 1008 hPa
Clouds: Muy nuboso
Visibility: 10 km
Cloud details: Few Clouds 366 m
Muy nuboso 518 m
2018/11/18 10:30 LEVT 181030Z 10007KT 060V130 9999 FEW012 BKN017 11/08 Q1008
 
LEBB - Bilbao/Sondica, Spain
Distance from station: NNO 235km
Actualización: 18/11/2018 11:30
Lluvia, Muy nuboso
Lluvia, Muy nuboso
 Viento del ESE
Viento: ESE 15 km/h
Temperatura: 14°C
Rocío: 11°C
Humedad: 82%
Barómetro: 1007 hPa
Resumen: Lluvia
Clouds: Muy nuboso
Visibility: 10 km
Cloud details: Few Clouds 1036 m
Muy nuboso 1524 m
2018/11/18 10:30 LEBB 181030Z 12008KT 090V150 9999 RA FEW034 BKN050 14/11 Q1007 NOSIG
LESO - San Sebastian/Fu, Spain
Distance from station: N 231km
Actualización: 18/11/2018 11:30
Parcialmente nuboso
Parcialmente nuboso
 Viento del calm
Viento: Calma
Temperatura: 13°C
Rocío: 10°C
Humedad: 82%
Barómetro: 1009 hPa
Clouds: Parcialmente nuboso
Visibility: 10 km
Cloud details: Parcialmente nuboso 1981 m
2018/11/18 10:30 LESO 181030Z 00000KT 9999 SCT065 13/10 Q1009
 
LEVD - Valladolid(Mil/C, Spain
Distance from station: ONO 239km
Actualización: 18/11/2018 11:30
Despejado
Despejado
 Viento del ENE
Viento: ENE 19 km/h
Temperatura: 8°C
Sensación frio: 4°C
Rocío: 6°C
Humedad: 87%
Barómetro: 1006 hPa
Resumen: Despejado
Visibility: greater than 10 km
2018/11/18 10:30 LEVD 181030Z 07010KT CAVOK 08/06 Q1006
LESA - Salamanca (civ/M, Spain
Distance from station: ONO 349km
Actualización: 18/11/2018 11:30
Few Clouds
Few Clouds
 Viento del E
Viento: E 9 km/h
Temperatura: 12°C
Rocío: 8°C
Humedad: 77%
Barómetro: 1004 hPa
Clouds: Few Clouds
Visibility: 10 km
Cloud details: Few Clouds 914 m
2018/11/18 10:30 LESA 181030Z 10005KT 070V130 9999 FEW030 12/08 Q1004
 
LEXJ - Santander/Paraya, Spain
Distance from station: NNO 247km
Actualización: 18/11/2018 11:30
Despejado
Despejado
 Viento del S
Viento: S 6 km/h
Temperatura: 14°C
Rocío: 12°C
Humedad: 88%
Barómetro: 1007 hPa
Resumen: Despejado
Visibility: greater than 10 km
2018/11/18 10:30 LEXJ 181030Z 18003KT 150V210 CAVOK 14/12 Q1007
LEAS - Asturias/Aviles, Spain
Distance from station: NO 214km
Actualización: 18/11/2018 11:30
Muy nuboso
Muy nuboso
 Viento del E
Viento: E 7 km/h
Temperatura: 13°C
Rocío: 12°C
Humedad: 94%
Barómetro: 1006 hPa
Clouds: Muy nuboso
Visibility: 10 km
Cloud details: Few Clouds 366 m
Muy nuboso 732 m
2018/11/18 10:30 LEAS 181030Z 10004KT 070V160 9999 FEW012 BKN024 13/12 Q1006 NOSIG
 
LECO - La Coruna/Alvedr, Spain
Distance from station: ONO 222km
Actualización: 18/11/2018 11:30
Despejado
Despejado
 Viento del varies
Viento: varies 4 km/h
Temperatura: 14°C
Rocío: 10°C
Humedad: 77%
Barómetro: 1004 hPa
Resumen: Despejado
Visibility: greater than 10 km
2018/11/18 10:30 LECO 181030Z VRB02KT CAVOK 14/10 Q1004 NOSIG
LEVX - Vigo/Peinador, Spain
Distance from station: O 214km
Actualización: 18/11/2018 11:30
Despejado
Despejado
 Viento del ENE
Viento: ENE 9 km/h
Temperatura: 18°C
Rocío: 10°C
Humedad: 60%
Barómetro: 1002 hPa
Resumen: Despejado
Visibility: greater than 10 km
2018/11/18 10:30 LEVX 181030Z 07005KT 020V130 CAVOK 18/10 Q1002 NOSIG